Time;durP1;ratioP1;P1;durP2;ratioP2;P2;SDS_P1;SDS_P2;PMS_P1;PMS_P2;Temp;Humidity;BMP_temperature;BMP_pressure;BME280_temperature;BME280_humidity;BME280_pressure;Samples;Min_cycle;Max_cycle;Signal;HPM_P1;HPM_P2
2022/05/05 00:01:29;;;;;;;9.38;6.70;;;;;;;;;;6246362;28;20045;-69
2022/05/05 00:04:32;;;;;;;9.05;6.93;;;;;;;;;;6249861;28;20123;-69
2022/05/05 00:07:34;;;;;;;12.37;6.50;;;;;;;;;;6248028;28;20099;-69
2022/05/05 00:17:14;;;;;;;10.60;6.70;;;;;;;;;;6249968;28;20054;-69
2022/05/05 00:20:17;;;;;;;11.60;6.68;;;;;;;;;;6246858;28;20053;-70
2022/05/05 00:23:19;;;;;;;13.37;7.27;;;;;;;;;;6246207;28;20115;-69
2022/05/05 00:26:20;;;;;;;9.43;6.97;;;;;;;;;;6245481;28;20067;-69
2022/05/05 00:29:22;;;;;;;11.45;7.53;;;;;;;;;;6240638;28;20057;-70
2022/05/05 00:32:23;;;;;;;10.32;7.25;;;;;;;;;;6247865;28;20061;-70
2022/05/05 00:35:26;;;;;;;10.85;7.32;;;;;;;;;;6244168;28;20103;-69
2022/05/05 00:38:28;;;;;;;10.00;6.77;;;;;;;;;;6248784;28;20045;-69
2022/05/05 00:41:33;;;;;;;10.50;6.50;;;;;;;;;;6247297;28;20232;-69
2022/05/05 00:44:34;;;;;;;9.85;6.60;;;;;;;;;;6242366;28;20148;-69
2022/05/05 00:47:37;;;;;;;8.73;6.35;;;;;;;;;;6249335;28;20337;-70
2022/05/05 00:50:40;;;;;;;10.57;7.70;;;;;;;;;;6249290;28;20050;-70
2022/05/05 00:53:41;;;;;;;10.30;7.93;;;;;;;;;;6246224;28;20057;-69
2022/05/05 00:56:45;;;;;;;14.57;7.90;;;;;;;;;;6245912;28;20111;-69
2022/05/05 00:59:47;;;;;;;13.18;7.82;;;;;;;;;;6242893;28;20073;-70
2022/05/05 01:02:49;;;;;;;14.13;8.10;;;;;;;;;;6246372;28;20038;-70
2022/05/05 01:05:52;;;;;;;12.10;8.10;;;;;;;;;;6246546;28;20141;-69
2022/05/05 01:08:54;;;;;;;13.17;8.07;;;;;;;;;;6247984;28;20049;-69
2022/05/05 01:11:56;;;;;;;9.23;7.50;;;;;;;;;;6253802;28;20052;-69
2022/05/05 01:14:59;;;;;;;11.38;8.32;;;;;;;;;;6250026;28;20084;-69
2022/05/05 01:18:00;;;;;;;11.43;8.38;;;;;;;;;;6249922;28;20052;-69
2022/05/05 01:21:04;;;;;;;11.48;8.57;;;;;;;;;;6251327;28;20053;-68
2022/05/05 01:24:07;;;;;;;10.95;8.50;;;;;;;;;;6250020;28;20061;-70
2022/05/05 01:30:29;;;;;;;10.32;8.20;;;;;;;;;;6252670;28;20049;-69
2022/05/05 01:33:31;;;;;;;11.13;7.78;;;;;;;;;;6249609;28;20049;-70
2022/05/05 01:36:33;;;;;;;11.15;7.55;;;;;;;;;;6253896;28;20073;-70
2022/05/05 01:39:35;;;;;;;12.05;7.57;;;;;;;;;;6255386;28;20419;-70
2022/05/05 01:42:38;;;;;;;8.73;6.90;;;;;;;;;;6248596;28;20061;-69
2022/05/05 01:45:40;;;;;;;10.75;6.60;;;;;;;;;;6253905;28;20084;-69
2022/05/05 01:48:41;;;;;;;10.63;6.70;;;;;;;;;;6253505;28;20057;-70
2022/05/05 01:51:43;;;;;;;6.82;6.13;;;;;;;;;;6253967;28;20096;-71
2022/05/05 01:54:46;;;;;;;7.57;6.55;;;;;;;;;;6255027;28;20275;-69
2022/05/05 01:57:48;;;;;;;8.20;6.57;;;;;;;;;;6250532;28;20046;-70
2022/05/05 02:00:49;;;;;;;10.50;6.15;;;;;;;;;;6256405;28;20049;-70
2022/05/05 02:03:51;;;;;;;7.95;6.45;;;;;;;;;;6257597;28;20068;-70
2022/05/05 02:06:53;;;;;;;7.88;6.38;;;;;;;;;;6256063;28;20046;-70
2022/05/05 02:09:56;;;;;;;7.70;6.20;;;;;;;;;;6253593;28;20046;-70
2022/05/05 02:12:58;;;;;;;7.97;6.43;;;;;;;;;;6253528;28;20276;-70
2022/05/05 02:16:00;;;;;;;9.35;6.35;;;;;;;;;;6249993;28;20081;-69
2022/05/05 02:19:01;;;;;;;8.85;6.10;;;;;;;;;;6252887;28;20100;-70
2022/05/05 02:22:04;;;;;;;9.63;6.25;;;;;;;;;;6253765;28;20359;-70
2022/05/05 02:25:08;;;;;;;8.18;6.82;;;;;;;;;;6253843;28;20053;-70
2022/05/05 02:28:10;;;;;;;8.68;5.80;;;;;;;;;;6244952;28;20046;-70
2022/05/05 02:31:11;;;;;;;7.72;6.15;;;;;;;;;;6251485;28;20291;-70
2022/05/05 02:34:13;;;;;;;6.97;5.75;;;;;;;;;;6255309;28;20057;-70
2022/05/05 02:40:35;;;;;;;8.13;6.38;;;;;;;;;;6246964;28;20049;-70
2022/05/05 02:43:37;;;;;;;9.33;6.50;;;;;;;;;;6249445;28;20061;-69
2022/05/05 02:46:39;;;;;;;8.23;6.05;;;;;;;;;;6250472;28;20222;-70
2022/05/05 02:49:40;;;;;;;7.57;6.15;;;;;;;;;;6243655;28;20054;-70
2022/05/05 02:52:42;;;;;;;7.88;6.43;;;;;;;;;;6246285;28;20062;-70
2022/05/05 02:55:45;;;;;;;8.68;6.07;;;;;;;;;;6242463;28;20320;-70
2022/05/05 02:58:47;;;;;;;7.17;6.33;;;;;;;;;;6249189;28;20061;-70
2022/05/05 03:01:48;;;;;;;7.72;6.18;;;;;;;;;;6250640;28;20054;-70
2022/05/05 03:04:50;;;;;;;7.43;6.15;;;;;;;;;;6252900;28;20275;-69
2022/05/05 03:07:52;;;;;;;9.55;6.40;;;;;;;;;;6246008;28;20045;-71
2022/05/05 03:10:54;;;;;;;7.38;6.38;;;;;;;;;;6246867;28;20065;-70
2022/05/05 03:13:56;;;;;;;8.70;6.50;;;;;;;;;;6244400;28;20054;-71
2022/05/05 03:16:58;;;;;;;8.85;6.80;;;;;;;;;;6242146;28;20057;-70
2022/05/05 03:19:59;;;;;;;10.57;6.68;;;;;;;;;;6241144;28;20050;-70
2022/05/05 03:23:01;;;;;;;8.20;6.65;;;;;;;;;;6246977;28;20076;-70
2022/05/05 03:26:05;;;;;;;9.25;6.70;;;;;;;;;;6246314;28;20052;-70
2022/05/05 03:29:07;;;;;;;7.18;5.93;;;;;;;;;;6244966;28;20058;-69
2022/05/05 03:32:09;;;;;;;9.48;6.72;;;;;;;;;;6247401;28;20057;-69
2022/05/05 03:35:11;;;;;;;10.20;6.60;;;;;;;;;;6246835;28;20121;-69
2022/05/05 03:38:12;;;;;;;11.82;6.43;;;;;;;;;;6243144;28;20354;-69
2022/05/05 03:41:15;;;;;;;8.73;7.00;;;;;;;;;;6243485;28;20061;-70
2022/05/05 03:44:17;;;;;;;12.40;6.37;;;;;;;;;;6245023;28;20049;-70
2022/05/05 03:47:19;;;;;;;9.13;6.57;;;;;;;;;;6240464;28;20108;-70
2022/05/05 03:50:20;;;;;;;7.88;6.28;;;;;;;;;;6249177;28;20163;-69
2022/05/05 03:53:22;;;;;;;8.68;6.03;;;;;;;;;;6245325;28;20316;-69
2022/05/05 03:56:25;;;;;;;9.88;6.53;;;;;;;;;;6240942;28;20291;-70
2022/05/05 03:59:26;;;;;;;7.50;6.27;;;;;;;;;;6246948;28;20060;-67
2022/05/05 04:02:28;;;;;;;9.35;7.43;;;;;;;;;;6243935;28;20050;-69
2022/05/05 04:05:30;;;;;;;9.13;5.90;;;;;;;;;;6239643;28;20053;-68
2022/05/05 04:08:32;;;;;;;7.95;6.22;;;;;;;;;;6250082;28;20291;-69
2022/05/05 04:11:35;;;;;;;7.63;5.95;;;;;;;;;;6249919;28;20108;-69
2022/05/05 04:14:36;;;;;;;10.07;5.73;;;;;;;;;;6249656;28;20064;-69
2022/05/05 04:17:38;;;;;;;11.23;6.40;;;;;;;;;;6252416;28;20131;-69
2022/05/05 04:20:41;;;;;;;7.57;6.05;;;;;;;;;;6254231;28;20048;-69
2022/05/05 04:23:42;;;;;;;8.70;7.10;;;;;;;;;;6248193;28;20200;-69
2022/05/05 04:26:45;;;;;;;9.05;6.78;;;;;;;;;;6250124;28;20371;-69
2022/05/05 04:29:48;;;;;;;9.38;6.53;;;;;;;;;;6246944;28;20045;-69
2022/05/05 04:32:49;;;;;;;12.30;7.07;;;;;;;;;;6249534;28;20064;-69
2022/05/05 04:35:51;;;;;;;7.43;6.45;;;;;;;;;;6245451;28;20411;-69
2022/05/05 04:38:53;;;;;;;9.02;7.00;;;;;;;;;;6253869;28;20062;-69
2022/05/05 04:41:56;;;;;;;9.57;6.95;;;;;;;;;;6253519;28;20332;-69
2022/05/05 04:44:57;;;;;;;8.82;7.03;;;;;;;;;;6255755;28;20287;-69
2022/05/05 04:47:59;;;;;;;11.35;7.20;;;;;;;;;;6256109;28;20120;-68
2022/05/05 04:51:00;;;;;;;11.80;8.52;;;;;;;;;;6255698;28;20087;-69
2022/05/05 04:54:02;;;;;;;10.80;8.25;;;;;;;;;;6253232;28;20383;-69
2022/05/05 04:57:06;;;;;;;10.70;7.20;;;;;;;;;;6252206;28;20072;-69
2022/05/05 05:00:09;;;;;;;11.50;7.65;;;;;;;;;;6253578;28;20087;-70
2022/05/05 05:03:32;;;;;;;11.30;8.02;;;;;;;;;;6250185;28;20097;-68
2022/05/05 05:06:33;;;;;;;12.77;7.85;;;;;;;;;;6249218;28;20058;-68
2022/05/05 05:09:35;;;;;;;11.35;8.70;;;;;;;;;;6251271;28;20052;-70
2022/05/05 05:12:38;;;;;;;12.15;7.95;;;;;;;;;;6251469;28;20120;-69
2022/05/05 05:15:40;;;;;;;12.17;8.27;;;;;;;;;;6250514;28;20061;-68
2022/05/05 05:18:41;;;;;;;10.75;8.75;;;;;;;;;;6251212;28;20049;-70
2022/05/05 05:21:43;;;;;;;15.18;9.05;;;;;;;;;;6248853;28;20065;-69
2022/05/05 05:24:45;;;;;;;17.90;9.55;;;;;;;;;;6252619;28;20296;-69
2022/05/05 05:27:48;;;;;;;13.95;10.07;;;;;;;;;;6245496;28;20113;-69
2022/05/05 05:30:49;;;;;;;16.60;10.83;;;;;;;;;;6250177;28;20095;-69
2022/05/05 05:33:51;;;;;;;16.73;11.32;;;;;;;;;;6248962;28;20053;-69
2022/05/05 05:36:53;;;;;;;16.15;10.63;;;;;;;;;;6248514;28;20056;-70
2022/05/05 05:39:54;;;;;;;14.00;11.60;;;;;;;;;;6250550;28;21385;-69
2022/05/05 05:42:57;;;;;;;14.88;10.95;;;;;;;;;;6251507;28;20057;-69
2022/05/05 05:45:59;;;;;;;15.63;10.93;;;;;;;;;;6249075;28;20045;-68
2022/05/05 05:49:01;;;;;;;16.50;11.45;;;;;;;;;;6244775;28;20065;-70
2022/05/05 05:52:03;;;;;;;13.15;10.88;;;;;;;;;;6247309;28;20094;-69
2022/05/05 05:55:06;;;;;;;16.63;11.25;;;;;;;;;;6244749;28;20045;-69
2022/05/05 05:58:08;;;;;;;14.90;11.65;;;;;;;;;;6244836;28;20038;-69
2022/05/05 06:01:10;;;;;;;16.23;11.50;;;;;;;;;;6245221;28;20275;-69
2022/05/05 06:04:11;;;;;;;17.55;12.13;;;;;;;;;;6249307;28;20041;-69
2022/05/05 06:07:12;;;;;;;17.13;12.75;;;;;;;;;;6247934;28;20066;-70
2022/05/05 06:10:14;;;;;;;17.20;11.63;;;;;;;;;;6252660;28;20049;-70
2022/05/05 06:13:17;;;;;;;15.45;12.40;;;;;;;;;;6249906;28;20581;-70
2022/05/05 06:16:18;;;;;;;18.90;13.25;;;;;;;;;;6246529;28;21099;-69
2022/05/05 06:19:20;;;;;;;18.08;12.90;;;;;;;;;;6247957;28;20072;-70
2022/05/05 06:22:22;;;;;;;18.77;13.65;;;;;;;;;;6246662;28;20519;-68
2022/05/05 06:25:24;;;;;;;16.00;13.18;;;;;;;;;;6243928;28;20064;-70
2022/05/05 06:28:27;;;;;;;16.98;13.18;;;;;;;;;;6245146;28;20064;-69
2022/05/05 06:31:29;;;;;;;21.48;14.15;;;;;;;;;;6247943;28;20053;-70
2022/05/05 06:34:30;;;;;;;19.52;14.73;;;;;;;;;;6251637;28;20128;-70
2022/05/05 06:37:32;;;;;;;18.85;14.02;;;;;;;;;;6253135;28;20049;-70
2022/05/05 06:40:35;;;;;;;17.05;13.63;;;;;;;;;;6249544;28;20092;-70
2022/05/05 06:43:38;;;;;;;19.15;14.32;;;;;;;;;;6249256;28;20045;-70
2022/05/05 06:46:39;;;;;;;19.13;14.60;;;;;;;;;;6247737;28;20099;-70
2022/05/05 06:49:41;;;;;;;25.52;14.73;;;;;;;;;;6248817;28;20324;-71
2022/05/05 06:52:43;;;;;;;16.63;14.32;;;;;;;;;;6251865;28;20087;-70
2022/05/05 06:55:44;;;;;;;21.15;14.52;;;;;;;;;;6246132;28;20084;-70
2022/05/05 06:58:47;;;;;;;20.77;14.70;;;;;;;;;;6254921;28;20344;-70
2022/05/05 07:01:56;;;;;;;19.50;14.73;;;;;;;;;;6253793;28;20053;-69
2022/05/05 07:08:17;;;;;;;19.75;14.48;;;;;;;;;;6249290;28;20049;-71
2022/05/05 07:11:17;;;;;;;19.73;14.93;;;;;;;;;;6249736;28;20099;-70
2022/05/05 07:14:20;;;;;;;19.08;15.15;;;;;;;;;;6249271;28;20057;-70
2022/05/05 07:17:23;;;;;;;20.20;15.23;;;;;;;;;;6251897;28;20103;-70
2022/05/05 07:20:24;;;;;;;17.88;14.80;;;;;;;;;;6246661;28;20041;-71
2022/05/05 07:23:26;;;;;;;20.30;16.33;;;;;;;;;;6250249;28;20080;-70
2022/05/05 07:26:28;;;;;;;27.33;17.27;;;;;;;;;;6251757;28;20045;-70
2022/05/05 07:29:31;;;;;;;21.73;17.17;;;;;;;;;;6250583;28;20144;-70
2022/05/05 07:32:33;;;;;;;23.75;17.08;;;;;;;;;;6246341;28;20054;-70
2022/05/05 07:35:36;;;;;;;24.23;17.13;;;;;;;;;;6247305;28;20050;-70
2022/05/05 07:38:38;;;;;;;21.10;17.02;;;;;;;;;;6245033;28;20129;-70
2022/05/05 07:41:40;;;;;;;25.95;18.13;;;;;;;;;;6248386;28;20478;-70
2022/05/05 07:44:43;;;;;;;20.63;16.73;;;;;;;;;;6246209;28;20068;-69
2022/05/05 07:47:44;;;;;;;24.83;18.33;;;;;;;;;;6243744;28;20069;-69
2022/05/05 07:50:47;;;;;;;28.48;18.25;;;;;;;;;;6246446;28;20106;-70
2022/05/05 07:54:34;;;;;;;23.35;17.83;;;;;;;;;;6247161;28;20108;-70
2022/05/05 07:57:12;;;;;;;26.67;18.75;;;;;;;;;;6246310;28;20428;-70
2022/05/05 08:00:16;;;;;;;23.90;18.60;;;;;;;;;;6245085;28;20232;-70
2022/05/05 08:03:18;;;;;;;25.85;17.77;;;;;;;;;;6244224;28;20072;-70
2022/05/05 08:06:20;;;;;;;22.50;17.77;;;;;;;;;;6246124;28;20320;-71
2022/05/05 08:09:21;;;;;;;27.10;17.55;;;;;;;;;;6246898;28;20142;-70
2022/05/05 08:12:23;;;;;;;24.73;17.67;;;;;;;;;;6243672;28;20104;-70
2022/05/05 08:15:26;;;;;;;27.33;18.00;;;;;;;;;;6243282;28;20049;-70
2022/05/05 08:18:27;;;;;;;21.30;16.25;;;;;;;;;;6249688;28;20060;-70
2022/05/05 08:21:29;;;;;;;23.80;16.52;;;;;;;;;;6247990;28;20344;-70
2022/05/05 08:31:12;;;;;;;24.42;16.58;;;;;;;;;;6246677;28;20057;-69
2022/05/05 08:34:13;;;;;;;;;;;;;;;;;;6246759;28;20328;-69
2022/05/05 08:37:15;;;;;;;24.10;15.75;;;;;;;;;;6242830;28;19922;-70
2022/05/05 08:40:16;;;;;;;23.83;18.08;;;;;;;;;;6242948;28;20351;-70
2022/05/05 08:43:18;;;;;;;25.00;17.15;;;;;;;;;;6246242;28;20115;-70
2022/05/05 08:46:26;;;;;;;22.42;15.43;;;;;;;;;;6244227;28;20045;-70
2022/05/05 08:49:28;;;;;;;21.23;16.45;;;;;;;;;;6247685;28;20045;-70
2022/05/05 08:52:35;;;;;;;19.35;15.27;;;;;;;;;;6242861;28;20108;-70
2022/05/05 08:55:37;;;;;;;19.83;16.02;;;;;;;;;;6245791;28;20104;-70
2022/05/05 08:58:38;;;;;;;23.67;16.85;;;;;;;;;;6241685;28;20049;-69
2022/05/05 09:01:42;;;;;;;24.45;16.48;;;;;;;;;;6238848;28;20057;-70
2022/05/05 09:04:45;;;;;;;21.70;17.52;;;;;;;;;;6248774;28;20057;-70
2022/05/05 09:07:49;;;;;;;21.40;16.85;;;;;;;;;;6246538;28;20053;-70
2022/05/05 09:10:50;;;;;;;23.13;15.93;;;;;;;;;;6251711;28;20072;-70
2022/05/05 09:13:52;;;;;;;25.02;16.13;;;;;;;;;;6253065;28;20349;-69
2022/05/05 09:16:55;;;;;;;22.23;16.33;;;;;;;;;;6253087;28;20276;-69
2022/05/05 09:19:59;;;;;;;20.20;16.97;;;;;;;;;;6244770;28;20052;-70
2022/05/05 09:23:00;;;;;;;24.85;17.27;;;;;;;;;;6248817;28;20073;-70
2022/05/05 09:26:04;;;;;;;22.20;16.33;;;;;;;;;;6253877;28;20317;-70
2022/05/05 09:29:19;;;;;;;21.02;17.00;;;;;;;;;;6252011;28;20061;-70
2022/05/05 09:32:22;;;;;;;21.60;16.05;;;;;;;;;;6247019;28;20431;-70
2022/05/05 09:35:23;;;;;;;20.70;16.37;;;;;;;;;;6253039;28;20065;-70
2022/05/05 09:38:25;;;;;;;19.45;15.45;;;;;;;;;;6255797;28;20332;-70
2022/05/05 09:41:28;;;;;;;20.92;14.88;;;;;;;;;;6253145;28;20240;-70
2022/05/05 09:44:30;;;;;;;20.40;14.73;;;;;;;;;;6245193;28;20046;-70
2022/05/05 09:47:33;;;;;;;19.42;14.90;;;;;;;;;;6249719;28;20115;-70
2022/05/05 09:50:36;;;;;;;19.42;15.82;;;;;;;;;;6249910;28;20057;-69
2022/05/05 10:00:44;;;;;;;19.90;14.88;;;;;;;;;;6249157;28;20058;-70
2022/05/05 10:04:06;;;;;;;25.38;15.85;;;;;;;;;;6250080;28;20137;-70
2022/05/05 10:07:09;;;;;;;20.92;15.93;;;;;;;;;;6250884;28;20049;-70
2022/05/05 10:10:11;;;;;;;22.70;16.70;;;;;;;;;;6250924;28;20210;-70
2022/05/05 10:13:13;;;;;;;19.67;17.02;;;;;;;;;;6249468;28;20115;-70
2022/05/05 10:16:18;;;;;;;19.83;16.48;;;;;;;;;;6244689;28;20116;-70
2022/05/05 10:19:21;;;;;;;20.77;17.30;;;;;;;;;;6245657;28;20049;-70
2022/05/05 10:22:39;;;;;;;22.93;17.60;;;;;;;;;;6245005;28;20072;-71
2022/05/05 10:25:41;;;;;;;19.42;16.30;;;;;;;;;;6244954;28;20467;-70
2022/05/05 10:28:44;;;;;;;19.40;15.98;;;;;;;;;;6252117;28;20165;-70
2022/05/05 10:31:47;;;;;;;18.92;16.27;;;;;;;;;;6254405;28;20387;-70
2022/05/05 10:34:54;;;;;;;24.30;16.80;;;;;;;;;;6249943;28;20080;-70
2022/05/05 10:37:56;;;;;;;22.17;16.88;;;;;;;;;;6253938;28;20069;-70
2022/05/05 10:40:58;;;;;;;19.67;16.52;;;;;;;;;;6248896;28;20057;-65
2022/05/05 10:44:24;;;;;;;20.40;16.63;;;;;;;;;;6246480;28;20045;-70
2022/05/05 10:47:26;;;;;;;21.90;16.85;;;;;;;;;;6242730;28;20240;-70
2022/05/05 10:50:29;;;;;;;20.27;16.75;;;;;;;;;;6243743;28;20049;-73
2022/05/05 10:53:33;;;;;;;19.85;16.35;;;;;;;;;;6242314;28;20149;-69
2022/05/05 10:56:38;;;;;;;23.50;16.70;;;;;;;;;;6240576;28;20042;-70
2022/05/05 11:00:07;;;;;;;24.83;16.13;;;;;;;;;;6251794;28;20167;-69
2022/05/05 11:03:17;;;;;;;22.02;16.55;;;;;;;;;;6249525;28;20050;-69
2022/05/05 11:06:21;;;;;;;22.30;16.60;;;;;;;;;;6248329;28;20053;-68
2022/05/05 11:09:29;;;;;;;19.90;15.73;;;;;;;;;;6251735;28;20129;-73
2022/05/05 11:12:36;;;;;;;20.55;17.20;;;;;;;;;;6245720;28;20077;-71
2022/05/05 11:22:33;;;;;;;19.73;16.55;;;;;;;;;;6245658;28;20049;-71
2022/05/05 11:25:34;;;;;;;;;;;;;;;;;;6254534;28;20058;-69
2022/05/05 11:28:36;;;;;;;21.70;16.48;;;;;;;;;;6239703;28;20180;-70
2022/05/05 11:31:37;;;;;;;23.85;17.15;;;;;;;;;;6249747;28;20060;-70
2022/05/05 11:34:40;;;;;;;25.23;17.77;;;;;;;;;;6251527;28;20045;-69
2022/05/05 11:37:44;;;;;;;24.27;18.05;;;;;;;;;;6249256;28;20053;-69
2022/05/05 11:40:45;;;;;;;;;;;;;;;;;;6250311;28;20049;-69
2022/05/05 11:47:11;;;;;;;22.02;17.92;;;;;;;;;;6250671;28;20049;-69
2022/05/05 11:50:12;;;;;;;22.38;18.08;;;;;;;;;;6248033;28;20045;-69
2022/05/05 11:53:17;;;;;;;21.83;19.42;;;;;;;;;;6252308;28;20107;-70
2022/05/05 11:56:18;;;;;;;27.25;19.67;;;;;;;;;;6249648;28;20275;-70
2022/05/05 12:02:40;;;;;;;24.23;19.08;;;;;;;;;;6249912;28;20046;-70
2022/05/05 12:05:42;;;;;;;23.55;19.73;;;;;;;;;;6249434;28;20075;-70
2022/05/05 12:08:45;;;;;;;22.02;19.63;;;;;;;;;;6247741;28;20053;-69
2022/05/05 12:11:47;;;;;;;24.98;20.00;;;;;;;;;;6248176;28;20100;-69
2022/05/05 12:14:49;;;;;;;28.08;22.17;;;;;;;;;;6247160;28;20057;-70
2022/05/05 12:17:57;;;;;;;26.67;22.10;;;;;;;;;;6248051;28;20103;-72
2022/05/05 12:20:59;;;;;;;24.63;20.83;;;;;;;;;;6248877;28;20324;-72
2022/05/05 12:24:04;;;;;;;26.20;21.15;;;;;;;;;;6249294;28;20128;-71
2022/05/05 12:27:07;;;;;;;25.10;22.10;;;;;;;;;;6248828;28;20067;-71
2022/05/05 12:30:10;;;;;;;66.70;43.72;;;;;;;;;;6247513;28;20076;-72
2022/05/05 12:33:13;;;;;;;32.08;26.27;;;;;;;;;;6247634;28;20054;-72
2022/05/05 12:36:15;;;;;;;49.08;36.65;;;;;;;;;;6246825;28;20324;-75
2022/05/05 12:39:20;;;;;;;133.38;91.75;;;;;;;;;;6246508;28;20057;-72
2022/05/05 12:42:22;;;;;;;52.22;43.47;;;;;;;;;;6249785;28;20083;-72
2022/05/05 12:45:24;;;;;;;56.77;43.33;;;;;;;;;;6251476;28;20464;-72
2022/05/05 12:48:26;;;;;;;101.75;72.20;;;;;;;;;;6246030;28;20058;-73
2022/05/05 12:51:30;;;;;;;96.40;73.78;;;;;;;;;;6247446;28;20120;-73
2022/05/05 13:01:28;;;;;;;41.33;34.83;;;;;;;;;;6201156;28;20058;-74
2022/05/05 13:04:29;;;;;;;44.58;34.47;;;;;;;;;;6195846;28;20194;-75
2022/05/05 13:07:31;;;;;;;30.58;19.42;;;;;;;;;;6198714;28;20360;-72
2022/05/05 13:10:34;;;;;;;32.00;16.55;;;;;;;;;;6197384;28;20142;-69
2022/05/05 13:13:35;;;;;;;28.03;8.73;;;;;;;;;;6201651;28;20237;-71
2022/05/05 13:16:37;;;;;;;40.10;14.35;;;;;;;;;;6199854;28;20050;-69
2022/05/05 13:19:40;;;;;;;36.30;27.92;;;;;;;;;;6196484;28;20282;-69
2022/05/05 13:22:42;;;;;;;24.95;17.73;;;;;;;;;;6201255;28;20362;-69
2022/05/05 13:25:45;;;;;;;11.85;7.75;;;;;;;;;;6197239;28;20105;-69
2022/05/05 13:28:46;;;;;;;11.20;6.82;;;;;;;;;;6197204;28;20285;-65
2022/05/05 13:31:48;;;;;;;9.05;6.45;;;;;;;;;;6217700;28;20328;-65
2022/05/05 13:34:52;;;;;;;10.80;6.72;;;;;;;;;;6249332;28;20057;-65
2022/05/05 13:37:55;;;;;;;;;;;;;;;;;;6248428;28;20062;-67
2022/05/05 13:40:58;;;;;;;12.68;7.55;;;;;;;;;;6257497;28;19917;-66
2022/05/05 13:43:59;;;;;;;13.65;7.95;;;;;;;;;;6254613;28;20053;-65
2022/05/05 13:47:01;;;;;;;14.00;8.30;;;;;;;;;;6250130;28;20049;-66
2022/05/05 13:50:03;;;;;;;11.82;7.93;;;;;;;;;;6253857;28;20057;-67
2022/05/05 13:53:05;;;;;;;15.60;8.23;;;;;;;;;;6247943;28;20096;-67
2022/05/05 13:56:09;;;;;;;13.25;7.88;;;;;;;;;;6245940;28;20062;-66
2022/05/05 13:59:10;;;;;;;17.08;7.97;;;;;;;;;;6244076;28;20088;-66
2022/05/05 14:02:12;;;;;;;10.55;7.18;;;;;;;;;;6252370;28;20123;-66
2022/05/05 14:05:13;;;;;;;12.43;7.18;;;;;;;;;;6244530;28;20108;-66
2022/05/05 14:15:15;;;;;;;14.45;8.88;;;;;;;;;;6156587;28;20180;-67
2022/05/05 14:18:17;;;;;;;12.20;8.82;;;;;;;;;;6172262;28;20043;-66
2022/05/05 14:21:18;;;;;;;15.38;10.32;;;;;;;;;;6171615;28;20050;-66
2022/05/05 14:24:20;;;;;;;16.08;10.18;;;;;;;;;;6169710;28;20151;-66
2022/05/05 14:27:23;;;;;;;17.08;11.82;;;;;;;;;;6172656;28;20376;-66
2022/05/05 14:30:25;;;;;;;17.05;12.82;;;;;;;;;;6172016;28;20194;-66
2022/05/05 14:33:26;;;;;;;18.85;12.63;;;;;;;;;;6173823;28;20054;-65
2022/05/05 14:36:29;;;;;;;17.90;13.10;;;;;;;;;;6177809;28;20306;-62
2022/05/05 14:39:30;;;;;;;23.08;14.25;;;;;;;;;;6173831;28;20133;-66
2022/05/05 14:42:33;;;;;;;22.77;15.65;;;;;;;;;;6210692;28;20099;-65
2022/05/05 14:45:35;;;;;;;22.33;14.83;;;;;;;;;;6248647;28;20111;-66
2022/05/05 14:48:37;;;;;;;22.70;15.15;;;;;;;;;;6250006;28;20096;-65
2022/05/05 14:51:38;;;;;;;21.58;15.48;;;;;;;;;;6250124;28;20057;-65
2022/05/05 14:54:41;;;;;;;23.75;16.50;;;;;;;;;;6250014;28;20046;-65
2022/05/05 14:57:45;;;;;;;24.02;16.13;;;;;;;;;;6247943;28;20049;-64
2022/05/05 15:00:46;;;;;;;;;;;;;;;;;;6253230;28;20112;-65
2022/05/05 15:03:49;;;;;;;30.20;18.33;;;;;;;;;;6250582;28;19987;-66
2022/05/05 15:06:50;;;;;;;30.13;20.38;;;;;;;;;;6249899;28;20099;-66
2022/05/05 15:09:52;;;;;;;31.85;21.15;;;;;;;;;;6248870;28;20129;-66
2022/05/05 15:12:55;;;;;;;34.30;22.45;;;;;;;;;;6246799;28;20053;-66
2022/05/05 15:15:57;;;;;;;35.00;22.33;;;;;;;;;;6244675;28;20048;-66
2022/05/05 15:18:58;;;;;;;31.35;20.67;;;;;;;;;;6247805;28;20152;-66
2022/05/05 15:22:00;;;;;;;35.38;21.48;;;;;;;;;;6245293;28;20244;-66
2022/05/05 15:25:09;;;;;;;33.47;22.80;;;;;;;;;;6251018;28;20053;-65
2022/05/05 15:28:12;;;;;;;34.42;23.10;;;;;;;;;;6249972;28;20061;-65
2022/05/05 15:31:14;;;;;;;30.38;21.15;;;;;;;;;;6249885;28;20112;-66
2022/05/05 15:34:16;;;;;;;29.38;19.30;;;;;;;;;;6246187;28;20340;-66
2022/05/05 15:37:17;;;;;;;34.78;20.75;;;;;;;;;;6250458;28;20112;-66
2022/05/05 15:40:19;;;;;;;29.92;20.38;;;;;;;;;;6248180;28;20053;-66
2022/05/05 15:43:22;;;;;;;25.98;18.48;;;;;;;;;;6244957;28;20065;-66
2022/05/05 15:46:24;;;;;;;25.10;18.67;;;;;;;;;;6245558;28;20068;-65
2022/05/05 15:49:25;;;;;;;26.27;18.67;;;;;;;;;;6244054;28;20473;-65
2022/05/05 15:52:27;;;;;;;25.23;18.20;;;;;;;;;;6249500;28;20051;-67
2022/05/05 15:55:28;;;;;;;28.08;19.48;;;;;;;;;;6245806;28;20076;-66
2022/05/05 15:58:31;;;;;;;31.88;20.48;;;;;;;;;;6250011;28;20057;-67
2022/05/05 16:01:33;;;;;;;24.33;16.87;;;;;;;;;;6247543;28;20061;-65
2022/05/05 16:04:35;;;;;;;26.73;17.15;;;;;;;;;;6245783;28;20064;-68
2022/05/05 16:07:37;;;;;;;22.23;15.35;;;;;;;;;;6250392;28;20259;-68
2022/05/05 16:10:39;;;;;;;19.88;14.20;;;;;;;;;;6246532;28;20053;-68
2022/05/05 16:13:42;;;;;;;24.00;15.63;;;;;;;;;;6245950;28;20053;-68
2022/05/05 16:16:43;;;;;;;21.37;15.80;;;;;;;;;;6245399;28;20092;-69
2022/05/05 16:19:45;;;;;;;21.40;15.00;;;;;;;;;;6248213;28;20095;-70
2022/05/05 16:22:47;;;;;;;25.05;14.60;;;;;;;;;;6254478;28;20041;-70
2022/05/05 16:32:28;;;;;;;24.15;16.52;;;;;;;;;;6246612;28;20112;-68
2022/05/05 16:35:30;;;;;;;28.08;17.05;;;;;;;;;;6248027;28;20360;-69
2022/05/05 16:38:32;;;;;;;25.90;16.95;;;;;;;;;;6246554;28;20506;-68
2022/05/05 16:41:34;;;;;;;26.15;17.15;;;;;;;;;;6248438;28;20238;-68
2022/05/05 16:44:37;;;;;;;25.13;17.80;;;;;;;;;;6252871;28;20314;-68
2022/05/05 16:47:39;;;;;;;25.40;18.37;;;;;;;;;;6250330;28;20064;-69
2022/05/05 16:50:40;;;;;;;28.98;18.67;;;;;;;;;;6250494;28;20096;-68
2022/05/05 16:53:42;;;;;;;29.77;19.23;;;;;;;;;;6241739;28;20103;-68
2022/05/05 16:56:44;;;;;;;26.48;19.00;;;;;;;;;;6243414;28;20061;-69
2022/05/05 16:59:47;;;;;;;34.67;21.88;;;;;;;;;;6249154;28;20073;-70
2022/05/05 17:02:49;;;;;;;33.45;20.27;;;;;;;;;;6247281;28;20049;-69
2022/05/05 17:05:50;;;;;;;35.28;21.73;;;;;;;;;;6247232;28;20061;-70
2022/05/05 17:08:52;;;;;;;32.22;21.33;;;;;;;;;;6251184;28;20320;-70
2022/05/05 17:11:53;;;;;;;25.67;18.05;;;;;;;;;;6250316;28;20236;-69
2022/05/05 17:14:57;;;;;;;33.53;20.23;;;;;;;;;;6249855;28;20104;-69
2022/05/05 17:17:59;;;;;;;;;;;;;;;;;;6251572;28;20045;-65
2022/05/05 17:21:00;;;;;;;31.20;21.23;;;;;;;;;;6250241;28;20023;-66
2022/05/05 17:24:02;;;;;;;33.70;21.65;;;;;;;;;;6248660;28;20061;-66
2022/05/05 17:27:04;;;;;;;35.13;21.90;;;;;;;;;;6247244;28;20057;-65
2022/05/05 17:30:09;;;;;;;34.03;21.55;;;;;;;;;;6246406;28;20303;-65
2022/05/05 17:33:10;;;;;;;31.08;20.85;;;;;;;;;;6247470;28;20103;-65
2022/05/05 17:36:12;;;;;;;32.97;21.58;;;;;;;;;;6244409;28;20100;-66
2022/05/05 17:39:13;;;;;;;32.47;20.88;;;;;;;;;;6249540;28;20057;-66
2022/05/05 17:42:18;;;;;;;32.63;21.05;;;;;;;;;;6248638;28;20352;-66
2022/05/05 17:52:00;;;;;;;29.73;21.25;;;;;;;;;;6249913;28;20061;-65
2022/05/05 17:55:01;;;;;;;30.05;20.65;;;;;;;;;;6247230;28;20333;-65
2022/05/05 17:58:04;;;;;;;28.25;18.48;;;;;;;;;;6250794;28;20045;-65
2022/05/05 18:01:09;;;;;;;23.20;16.38;;;;;;;;;;6247020;28;20362;-65
2022/05/05 18:04:11;;;;;;;19.02;13.98;;;;;;;;;;6250433;28;20221;-65
2022/05/05 18:07:13;;;;;;;16.33;13.70;;;;;;;;;;6253617;28;20085;-65
2022/05/05 18:10:14;;;;;;;17.90;13.02;;;;;;;;;;6252095;28;20179;-65
2022/05/05 18:13:16;;;;;;;20.23;13.48;;;;;;;;;;6251928;28;20065;-64
2022/05/05 18:16:19;;;;;;;20.08;13.85;;;;;;;;;;6245867;28;20049;-65
2022/05/05 18:19:21;;;;;;;20.80;15.48;;;;;;;;;;6246624;28;20057;-65
2022/05/05 18:22:25;;;;;;;16.83;13.68;;;;;;;;;;6241633;28;20238;-65
2022/05/05 18:25:27;;;;;;;22.38;14.23;;;;;;;;;;6246561;28;20113;-65
2022/05/05 18:28:28;;;;;;;17.42;12.48;;;;;;;;;;6243736;28;20062;-65
2022/05/05 18:31:32;;;;;;;18.75;13.50;;;;;;;;;;6245692;28;20065;-66
2022/05/05 18:34:34;;;;;;;19.10;12.55;;;;;;;;;;6254233;28;20053;-66
2022/05/05 18:37:36;;;;;;;19.25;12.60;;;;;;;;;;6249899;28;20052;-66
2022/05/05 18:40:38;;;;;;;16.80;11.65;;;;;;;;;;6246994;28;20045;-65
2022/05/05 18:43:41;;;;;;;19.50;11.27;;;;;;;;;;6244989;28;20175;-65
2022/05/05 18:46:45;;;;;;;13.90;11.50;;;;;;;;;;6242343;28;20057;-65
2022/05/05 18:49:48;;;;;;;14.82;11.38;;;;;;;;;;6247231;28;20080;-66
2022/05/05 18:52:49;;;;;;;14.07;10.75;;;;;;;;;;6248663;28;20063;-66
2022/05/05 18:55:51;;;;;;;14.60;11.23;;;;;;;;;;6241161;28;20096;-66
2022/05/05 18:58:53;;;;;;;14.20;11.48;;;;;;;;;;6247933;28;20111;-66
2022/05/05 19:01:56;;;;;;;18.52;13.18;;;;;;;;;;6254824;28;20061;-66
2022/05/05 19:04:57;;;;;;;18.27;13.75;;;;;;;;;;6256114;28;20335;-66